Time;durP1;ratioP1;P1;durP2;ratioP2;P2;SDS_P1;SDS_P2;PMS_P1;PMS_P2;Temp;Humidity;BMP_temperature;BMP_pressure;BME280_temperature;BME280_humidity;BME280_pressure;Samples;Min_cycle;Max_cycle;Signal;HPM_P1;HPM_P2
2023/05/29 00:01:13;;;;;;;12.93;2.38;;;10.80;99.90;;;;;;5095663;28;20040;-85
2023/05/29 00:03:39;;;;;;;12.85;2.55;;;10.80;99.90;;;;;;5095793;28;20484;-86
2023/05/29 00:06:05;;;;;;;15.25;2.60;;;10.70;99.90;;;;;;5095765;28;20052;-85
2023/05/29 00:08:31;;;;;;;14.35;2.53;;;10.80;99.90;;;;;;5095437;28;20135;-84
2023/05/29 00:10:58;;;;;;;15.10;2.20;;;10.90;99.90;;;;;;5095786;28;20077;-86
2023/05/29 00:13:32;;;;;;;15.35;2.75;;;10.90;99.90;;;;;;5113673;28;20430;-84
2023/05/29 00:16:00;;;;;;;16.45;3.15;;;10.90;99.90;;;;;;5113588;28;20039;-84
2023/05/29 00:18:26;;;;;;;12.23;2.80;;;10.90;99.90;;;;;;5095440;28;20048;-83
2023/05/29 00:20:58;;;;;;;13.10;2.67;;;10.80;99.90;;;;;;5095126;28;20545;-84
2023/05/29 00:23:24;;;;;;;12.57;2.42;;;10.80;99.90;;;;;;5095334;28;20074;-84
2023/05/29 00:25:52;;;;;;;14.85;2.28;;;10.90;99.90;;;;;;5095619;28;20054;-84
2023/05/29 00:28:18;;;;;;;27.05;3.58;;;10.90;99.90;;;;;;5113575;28;20039;-84
2023/05/29 00:30:44;;;;;;;15.55;2.67;;;10.90;99.90;;;;;;5113637;28;20036;-84
2023/05/29 00:33:11;;;;;;;18.50;2.72;;;10.90;99.90;;;;;;5097594;28;20437;-85
2023/05/29 00:35:37;;;;;;;10.45;2.53;;;10.90;99.90;;;;;;5099299;28;20055;-83
2023/05/29 00:38:03;;;;;;;14.02;2.50;;;10.90;99.90;;;;;;5117470;28;20433;-84
2023/05/29 00:40:28;;;;;;;13.25;2.53;;;10.90;99.90;;;;;;5117138;28;20057;-84
2023/05/29 00:42:54;;;;;;;20.20;3.78;;;10.90;99.90;;;;;;5117160;28;20031;-85
2023/05/29 00:45:20;;;;;;;11.55;2.42;;;10.90;99.90;;;;;;5098984;28;20090;-85
2023/05/29 00:47:46;;;;;;;18.75;3.83;;;11.00;99.90;;;;;;5098873;28;20435;-84
2023/05/29 00:50:13;;;;;;;10.85;3.15;;;11.00;99.90;;;;;;5117004;28;20071;-83
2023/05/29 00:52:41;;;;;;;13.82;3.80;;;11.00;99.90;;;;;;5098877;28;20103;-83
2023/05/29 00:55:08;;;;;;;16.55;2.45;;;11.00;99.90;;;;;;5098623;28;20482;-84
2023/05/29 00:57:35;;;;;;;21.70;4.47;;;11.10;99.90;;;;;;5098554;28;20116;-84
2023/05/29 01:00:08;;;;;;;11.18;2.42;;;11.10;99.90;;;;;;5098566;28;20526;-83
2023/05/29 01:02:36;;;;;;;;;;;11.10;99.90;;;;;;5098927;28;20051;-84
2023/05/29 01:05:01;;;;;;;19.67;2.58;;;11.00;99.90;;;;;;5098663;28;19919;-82
2023/05/29 01:07:27;;;;;;;16.50;2.30;;;11.00;99.90;;;;;;5098650;28;20073;-83
2023/05/29 01:09:53;;;;;;;15.55;2.60;;;11.00;99.90;;;;;;5098568;28;20047;-83
2023/05/29 01:12:40;;;;;;;12.50;2.97;;;11.00;99.90;;;;;;5098242;28;20504;-82
2023/05/29 01:15:11;;;;;;;15.65;2.97;;;11.00;99.90;;;;;;5098041;28;20406;-82
2023/05/29 01:18:01;;;;;;;16.42;3.75;;;11.00;99.90;;;;;;5098257;28;20094;-83
2023/05/29 01:20:42;;;;;;;18.88;2.90;;;11.00;99.90;;;;;;5116427;28;20047;-83
2023/05/29 01:23:27;;;;;;;9.55;2.70;;;11.00;99.90;;;;;;5116384;28;20075;-84
2023/05/29 01:26:11;;;;;;;16.63;3.25;;;11.00;99.90;;;;;;5098405;28;20096;-87
2023/05/29 01:28:48;;;;;;;18.98;3.45;;;11.00;99.90;;;;;;5098416;28;20048;-87
2023/05/29 01:31:16;;;;;;;10.45;2.95;;;11.10;99.90;;;;;;5096757;28;20044;-85
2023/05/29 01:33:55;;;;;;;17.67;2.95;;;11.10;99.90;;;;;;5097419;28;20448;-85
2023/05/29 01:36:22;;;;;;;10.43;2.58;;;11.10;99.90;;;;;;5097692;28;20107;-85
2023/05/29 01:38:58;;;;;;;12.65;2.47;;;11.10;99.90;;;;;;5098113;28;20044;-84
2023/05/29 01:41:26;;;;;;;18.58;2.63;;;11.10;99.90;;;;;;5097750;28;20083;-84
2023/05/29 01:43:52;;;;;;;13.73;2.15;;;11.10;99.90;;;;;;5096956;28;20126;-85
2023/05/29 01:46:19;;;;;;;16.27;2.35;;;11.00;99.90;;;;;;5097912;28;20088;-85
2023/05/29 01:48:45;;;;;;;18.35;2.63;;;11.00;99.90;;;;;;5097907;28;20083;-84
2023/05/29 01:51:12;;;;;;;14.40;2.38;;;11.00;99.90;;;;;;5115839;28;20044;-84
2023/05/29 01:53:44;;;;;;;12.52;2.20;;;11.00;99.90;;;;;;5097818;28;20074;-85
2023/05/29 01:56:10;;;;;;;9.37;3.13;;;11.10;99.90;;;;;;5097390;28;20054;-84
2023/05/29 01:58:38;;;;;;;10.93;2.08;;;11.00;99.90;;;;;;5097639;28;20050;-85
2023/05/29 02:01:06;;;;;;;9.85;3.15;;;11.10;99.90;;;;;;5097294;28;20058;-86
2023/05/29 02:03:32;;;;;;;9.98;2.47;;;11.00;99.90;;;;;;5097177;28;20483;-85
2023/05/29 02:05:59;;;;;;;12.95;2.70;;;11.10;99.90;;;;;;5115667;28;20070;-84
2023/05/29 02:08:25;;;;;;;11.25;2.15;;;11.00;99.90;;;;;;5097202;28;20044;-84
2023/05/29 02:10:51;;;;;;;9.10;2.05;;;11.10;99.90;;;;;;5115577;28;20046;-85
2023/05/29 02:13:17;;;;;;;11.77;2.15;;;11.10;99.90;;;;;;5115290;28;20035;-86
2023/05/29 02:15:42;;;;;;;9.25;2.30;;;10.90;99.90;;;;;;5097068;28;20498;-86
2023/05/29 02:18:12;;;;;;;11.50;2.38;;;10.90;99.90;;;;;;5097015;28;20040;-85
2023/05/29 02:20:38;;;;;;;9.45;2.38;;;10.90;99.90;;;;;;5096950;28;20048;-83
2023/05/29 02:23:07;;;;;;;10.93;2.15;;;10.90;99.90;;;;;;5097179;28;20039;-84
2023/05/29 02:25:33;;;;;;;9.98;2.28;;;10.90;99.90;;;;;;5115005;28;20130;-84
2023/05/29 02:27:59;;;;;;;17.73;2.97;;;10.90;99.90;;;;;;5097046;28;20047;-84
2023/05/29 02:30:24;;;;;;;17.13;3.22;;;10.90;99.90;;;;;;5096763;28;20138;-84
2023/05/29 02:32:50;;;;;;;14.77;2.42;;;10.90;99.90;;;;;;5096803;28;20028;-83
2023/05/29 02:35:23;;;;;;;11.57;2.58;;;10.80;99.90;;;;;;5115097;28;20056;-86
2023/05/29 02:37:49;;;;;;;12.05;2.55;;;10.80;99.90;;;;;;5096390;28;20130;-85
2023/05/29 02:40:15;;;;;;;12.15;2.40;;;10.80;99.90;;;;;;5096672;28;20050;-86
2023/05/29 02:42:41;;;;;;;15.05;3.38;;;10.80;99.90;;;;;;5096426;28;20044;-85
2023/05/29 02:45:07;;;;;;;12.52;2.78;;;10.80;99.90;;;;;;5096609;28;20047;-84
2023/05/29 02:47:36;;;;;;;9.60;2.60;;;10.80;99.90;;;;;;5096721;28;20044;-84
2023/05/29 02:50:02;;;;;;;12.60;2.88;;;10.90;99.90;;;;;;5096462;28;20094;-86
2023/05/29 02:52:30;;;;;;;16.52;2.63;;;10.90;99.90;;;;;;5096201;28;20039;-84
2023/05/29 02:55:03;;;;;;;11.48;2.92;;;11.00;99.90;;;;;;5096381;28;20094;-84
2023/05/29 02:57:28;;;;;;;10.30;2.58;;;11.00;99.90;;;;;;5096620;28;20050;-85
2023/05/29 02:59:56;;;;;;;13.90;2.13;;;11.00;99.90;;;;;;5096290;28;20036;-85
2023/05/29 03:02:22;;;;;;;12.55;2.22;;;10.90;99.90;;;;;;5096448;28;20486;-85
2023/05/29 03:04:52;;;;;;;11.07;2.50;;;11.00;99.90;;;;;;5096485;28;20062;-85
2023/05/29 03:07:18;;;;;;;10.27;2.20;;;11.00;99.90;;;;;;5114596;28;20509;-84
2023/05/29 03:09:44;;;;;;;11.95;2.40;;;11.00;99.90;;;;;;5096407;28;20059;-86
2023/05/29 03:12:10;;;;;;;12.02;2.90;;;11.10;99.90;;;;;;5096431;28;20043;-85
2023/05/29 03:14:36;;;;;;;9.38;2.58;;;11.10;99.90;;;;;;5096099;28;20478;-85
2023/05/29 03:17:09;;;;;;;13.63;2.35;;;11.10;99.90;;;;;;5096010;28;20044;-85
2023/05/29 03:19:35;;;;;;;12.35;2.05;;;11.00;99.90;;;;;;5113783;28;20075;-84
2023/05/29 03:22:00;;;;;;;11.20;1.95;;;11.10;99.90;;;;;;5113882;28;20089;-84
2023/05/29 03:24:27;;;;;;;12.45;2.70;;;11.10;99.90;;;;;;5095628;28;20474;-85
2023/05/29 03:26:53;;;;;;;11.32;3.13;;;11.10;99.90;;;;;;5094780;28;20131;-83
2023/05/29 03:29:19;;;;;;;13.50;2.05;;;11.10;99.90;;;;;;5095903;28;20119;-84
2023/05/29 03:31:47;;;;;;;12.20;2.15;;;11.10;99.90;;;;;;5095682;28;20513;-84
2023/05/29 03:34:14;;;;;;;12.45;2.00;;;11.10;99.90;;;;;;5095636;28;20056;-85
2023/05/29 03:36:42;;;;;;;13.82;2.10;;;11.00;99.90;;;;;;5095487;28;20039;-85
2023/05/29 03:39:08;;;;;;;10.73;1.58;;;11.00;99.90;;;;;;5095981;28;20509;-85
2023/05/29 03:41:33;;;;;;;14.77;2.60;;;11.00;99.90;;;;;;5095537;28;20047;-84
2023/05/29 03:43:59;;;;;;;12.02;2.10;;;11.00;99.90;;;;;;5095471;28;20123;-84
2023/05/29 03:46:24;;;;;;;17.80;2.72;;;10.90;99.90;;;;;;5095836;28;20075;-83
2023/05/29 03:48:50;;;;;;;13.00;2.15;;;10.90;99.90;;;;;;5095446;28;20379;-84
2023/05/29 03:51:16;;;;;;;12.35;2.67;;;10.90;99.90;;;;;;5095393;28;20470;-86
2023/05/29 03:53:42;;;;;;;9.65;1.67;;;10.80;99.90;;;;;;5113805;28;20087;-86
2023/05/29 03:56:07;;;;;;;9.48;2.45;;;10.80;99.90;;;;;;5095390;28;20043;-85
2023/05/29 03:58:33;;;;;;;8.82;1.75;;;10.80;99.90;;;;;;5095547;28;20062;-84
2023/05/29 04:00:58;;;;;;;10.65;2.20;;;10.80;99.90;;;;;;5095351;28;20051;-84
2023/05/29 04:03:24;;;;;;;10.20;1.80;;;10.80;99.90;;;;;;5095419;28;20141;-84
2023/05/29 04:05:50;;;;;;;16.95;3.38;;;10.80;99.90;;;;;;5095655;28;20054;-84
2023/05/29 04:08:15;;;;;;;10.52;2.55;;;10.80;99.90;;;;;;5098550;28;20051;-84
2023/05/29 04:10:41;;;;;;;13.13;2.15;;;10.80;99.90;;;;;;5117698;28;20489;-85
2023/05/29 04:13:07;;;;;;;15.27;2.35;;;10.80;99.90;;;;;;5117629;28;20398;-84
2023/05/29 04:15:35;;;;;;;11.63;2.13;;;10.80;99.90;;;;;;5099081;28;20046;-84
2023/05/29 04:18:01;;;;;;;14.55;2.38;;;10.80;99.90;;;;;;5099360;28;20083;-83
2023/05/29 04:20:27;;;;;;;9.07;1.75;;;10.80;99.90;;;;;;5099088;28;20124;-83
2023/05/29 04:22:52;;;;;;;16.50;2.60;;;10.90;99.90;;;;;;5117476;28;20032;-83
2023/05/29 04:25:18;;;;;;;10.95;1.58;;;11.00;99.90;;;;;;5117565;28;20504;-84
2023/05/29 04:27:48;;;;;;;10.52;2.10;;;11.00;99.90;;;;;;5117458;28;20040;-85
2023/05/29 04:30:15;;;;;;;19.80;2.63;;;10.90;99.90;;;;;;5099195;28;20047;-83
2023/05/29 04:32:41;;;;;;;13.20;2.97;;;11.00;99.90;;;;;;5098842;28;20043;-85
2023/05/29 04:35:07;;;;;;;16.77;2.25;;;11.00;99.90;;;;;;5098673;28;20059;-84
2023/05/29 04:37:38;;;;;;;9.85;2.42;;;11.00;99.90;;;;;;5098997;28;20051;-84
2023/05/29 04:40:11;;;;;;;14.25;2.92;;;11.00;99.90;;;;;;5098630;28;20043;-84
2023/05/29 04:42:40;;;;;;;11.32;2.00;;;11.00;99.90;;;;;;5098576;28;20153;-85
2023/05/29 04:45:06;;;;;;;10.45;1.95;;;11.00;99.90;;;;;;5098679;28;20047;-84
2023/05/29 04:47:32;;;;;;;10.10;2.28;;;11.00;99.90;;;;;;5098438;28;20048;-85
2023/05/29 04:50:01;;;;;;;16.75;2.60;;;11.00;99.90;;;;;;5098627;28;20406;-82
2023/05/29 04:52:27;;;;;;;18.27;3.33;;;11.00;99.90;;;;;;5098708;28;20040;-84
2023/05/29 04:54:54;;;;;;;12.25;3.38;;;11.00;99.90;;;;;;5098542;28;20505;-85
2023/05/29 04:57:20;;;;;;;9.98;2.13;;;11.00;99.90;;;;;;5098325;28;20043;-84
2023/05/29 04:59:46;;;;;;;16.58;2.60;;;10.90;99.90;;;;;;5116458;28;20057;-84
2023/05/29 05:02:11;;;;;;;14.13;2.35;;;11.00;99.90;;;;;;5098280;28;20051;-84
2023/05/29 05:04:40;;;;;;;15.65;2.70;;;11.00;99.90;;;;;;5094853;28;20055;-84
2023/05/29 05:07:06;;;;;;;24.83;3.30;;;11.10;99.90;;;;;;5095068;28;20055;-85
2023/05/29 05:09:31;;;;;;;13.73;3.13;;;11.20;99.90;;;;;;5094673;28;20040;-85
2023/05/29 05:11:57;;;;;;;15.68;3.35;;;11.30;99.90;;;;;;5094689;28;20050;-85
2023/05/29 05:14:23;;;;;;;15.98;3.63;;;11.40;99.90;;;;;;5094982;28;20055;-87
2023/05/29 05:16:48;;;;;;;13.00;3.00;;;11.30;99.90;;;;;;5094931;28;20123;-84
2023/05/29 05:19:14;;;;;;;16.50;2.80;;;11.20;99.90;;;;;;5093265;28;20243;-85
2023/05/29 05:21:43;;;;;;;10.45;4.15;;;11.20;99.90;;;;;;5094573;28;20104;-84
2023/05/29 05:24:08;;;;;;;19.73;3.53;;;11.40;99.90;;;;;;5094826;28;20046;-86
2023/05/29 05:26:34;;;;;;;16.05;3.08;;;11.50;99.90;;;;;;5094488;28;20127;-85
2023/05/29 05:29:02;;;;;;;18.95;3.60;;;11.50;99.90;;;;;;5094531;28;20055;-85
2023/05/29 05:31:28;;;;;;;12.60;2.75;;;11.60;99.90;;;;;;5094657;28;20040;-86
2023/05/29 05:33:56;;;;;;;11.65;2.75;;;11.50;99.90;;;;;;5095562;28;20446;-86
2023/05/29 05:36:22;;;;;;;14.25;2.35;;;11.50;99.90;;;;;;5094464;28;20047;-87
2023/05/29 05:38:50;;;;;;;11.85;3.17;;;11.50;99.90;;;;;;5094152;28;20051;-85
2023/05/29 05:41:16;;;;;;;15.25;2.83;;;11.50;99.90;;;;;;5094047;28;20080;-84
2023/05/29 05:43:42;;;;;;;16.92;3.33;;;11.70;99.90;;;;;;5093995;28;20036;-85
2023/05/29 05:46:07;;;;;;;15.27;2.80;;;11.60;99.90;;;;;;5096637;28;20109;-84
2023/05/29 05:48:33;;;;;;;13.73;3.13;;;11.60;99.90;;;;;;5115762;28;20043;-83
2023/05/29 05:50:59;;;;;;;16.40;3.33;;;11.70;99.90;;;;;;5115729;28;20440;-84
2023/05/29 05:53:24;;;;;;;13.77;3.70;;;11.70;99.90;;;;;;5115558;28;20359;-84
2023/05/29 05:55:53;;;;;;;20.33;3.88;;;11.80;99.90;;;;;;5097559;28;20043;-85
2023/05/29 05:58:19;;;;;;;16.30;3.28;;;11.80;99.90;;;;;;5097445;28;20071;-82
2023/05/29 06:00:45;;;;;;;17.75;4.05;;;12.00;99.90;;;;;;5097052;28;20535;-81
2023/05/29 06:03:10;;;;;;;9.23;2.63;;;12.00;99.90;;;;;;5097423;28;20043;-83
2023/05/29 06:05:37;;;;;;;16.92;3.30;;;11.90;99.90;;;;;;5115529;28;20066;-84
2023/05/29 06:08:03;;;;;;;16.50;3.03;;;11.90;99.90;;;;;;5097207;28;20036;-82
2023/05/29 06:10:29;;;;;;;18.55;4.63;;;12.00;99.90;;;;;;5115240;28;20043;-84
2023/05/29 06:12:55;;;;;;;14.50;2.80;;;12.10;99.90;;;;;;5097225;28;20541;-85
2023/05/29 06:15:20;;;;;;;12.23;2.95;;;12.10;99.90;;;;;;5097130;28;20044;-81
2023/05/29 06:17:46;;;;;;;20.00;3.70;;;12.10;99.90;;;;;;5114246;28;20126;-85
2023/05/29 06:20:15;;;;;;;23.50;4.07;;;12.20;99.90;;;;;;5113886;28;20113;-85
2023/05/29 06:22:41;;;;;;;12.80;3.33;;;12.20;99.90;;;;;;5096591;28;20051;-81
2023/05/29 06:25:08;;;;;;;13.50;3.40;;;12.20;99.90;;;;;;5115426;28;20442;-82
2023/05/29 06:27:34;;;;;;;17.67;4.03;;;12.30;99.90;;;;;;5097217;28;20047;-81
2023/05/29 06:30:00;;;;;;;14.52;3.28;;;12.40;99.90;;;;;;5095911;28;20050;-87
2023/05/29 06:32:28;;;;;;;21.13;3.40;;;12.50;99.90;;;;;;5096184;28;20039;-82
2023/05/29 06:34:53;;;;;;;16.08;3.90;;;12.60;99.90;;;;;;5096088;28;20048;-90
2023/05/29 06:37:19;;;;;;;25.30;4.15;;;12.70;99.90;;;;;;5096727;28;20101;-89
2023/05/29 06:39:45;;;;;;;20.95;3.90;;;12.70;99.90;;;;;;5096500;28;20493;-86
2023/05/29 06:42:11;;;;;;;18.13;2.90;;;12.90;99.90;;;;;;5096505;28;20050;-80
2023/05/29 06:44:40;;;;;;;19.25;3.28;;;12.90;99.90;;;;;;5096119;28;20039;-82
2023/05/29 06:47:06;;;;;;;16.17;4.38;;;13.10;99.90;;;;;;5094467;28;20062;-83
2023/05/29 06:49:32;;;;;;;15.55;3.45;;;13.20;99.90;;;;;;5096102;28;20483;-83
2023/05/29 06:51:57;;;;;;;19.95;3.55;;;13.20;99.90;;;;;;5114151;28;20047;-83
2023/05/29 06:54:23;;;;;;;19.02;4.00;;;13.20;99.90;;;;;;5096227;28;20501;-83
2023/05/29 06:56:49;;;;;;;16.95;3.55;;;13.30;99.90;;;;;;5114163;28;20118;-85
2023/05/29 06:59:17;;;;;;;18.27;3.80;;;13.40;99.90;;;;;;5095931;28;20047;-81
2023/05/29 07:01:42;;;;;;;15.32;3.83;;;13.40;99.90;;;;;;5095776;28;20047;-82
2023/05/29 07:04:08;;;;;;;14.60;2.75;;;13.50;99.90;;;;;;5096006;28;20376;-85
2023/05/29 07:06:34;;;;;;;13.75;3.25;;;13.50;99.90;;;;;;5095888;28;20401;-82
2023/05/29 07:09:00;;;;;;;18.63;3.35;;;13.30;99.90;;;;;;5113041;28;20474;-85
2023/05/29 07:11:26;;;;;;;22.67;2.95;;;13.40;99.90;;;;;;5113837;28;20039;-83
2023/05/29 07:13:54;;;;;;;12.02;3.25;;;13.50;99.90;;;;;;5095741;28;20047;-84
2023/05/29 07:16:20;;;;;;;18.27;2.88;;;13.70;99.90;;;;;;5095789;28;20435;-84
2023/05/29 07:18:46;;;;;;;18.50;3.45;;;13.70;99.90;;;;;;5095513;28;20499;-81
2023/05/29 07:21:11;;;;;;;10.68;2.53;;;13.80;99.90;;;;;;5095624;28;20055;-81
2023/05/29 07:23:37;;;;;;;14.27;3.13;;;13.90;99.90;;;;;;5095517;28;20040;-84
2023/05/29 07:26:03;;;;;;;17.48;3.90;;;13.90;99.90;;;;;;5113711;28;20039;-79
2023/05/29 07:28:28;;;;;;;15.55;3.38;;;14.00;99.90;;;;;;5113696;28;20061;-84
2023/05/29 07:30:54;;;;;;;20.05;3.70;;;13.90;99.90;;;;;;5095476;28;20131;-85
2023/05/29 07:33:20;;;;;;;16.55;3.20;;;14.00;99.90;;;;;;5095133;28;20059;-85
2023/05/29 07:35:45;;;;;;;19.33;3.72;;;13.90;99.90;;;;;;5095543;28;20105;-82
2023/05/29 07:38:15;;;;;;;16.83;4.10;;;14.00;99.90;;;;;;5095646;28;20043;-80
2023/05/29 07:40:42;;;;;;;14.35;2.92;;;13.90;99.90;;;;;;5095410;28;20051;-81
2023/05/29 07:43:07;;;;;;;19.30;3.60;;;13.90;99.90;;;;;;5098503;28;20483;-82
2023/05/29 07:45:33;;;;;;;20.90;2.83;;;14.10;99.90;;;;;;5099537;28;20054;-83
2023/05/29 07:47:58;;;;;;;17.38;3.58;;;14.10;99.90;;;;;;5099421;28;20043;-84
2023/05/29 07:50:24;;;;;;;16.40;3.58;;;14.30;99.90;;;;;;5099669;28;20051;-83
2023/05/29 07:52:50;;;;;;;21.50;3.20;;;14.20;99.90;;;;;;5099467;28;20051;-84
2023/05/29 07:55:18;;;;;;;18.52;3.05;;;13.90;99.90;;;;;;5099520;28;20076;-83
2023/05/29 07:57:45;;;;;;;14.40;3.30;;;14.20;99.90;;;;;;5117559;28;20176;-83
2023/05/29 08:00:13;;;;;;;15.65;3.42;;;14.20;99.90;;;;;;5117540;28;20050;-83
2023/05/29 08:02:39;;;;;;;14.07;3.67;;;14.20;99.90;;;;;;5117393;28;20040;-82
2023/05/29 08:05:05;;;;;;;20.08;3.75;;;14.20;99.90;;;;;;5099302;28;20040;-85
2023/05/29 08:07:33;;;;;;;19.25;3.60;;;14.20;99.90;;;;;;5099332;28;20845;-86
2023/05/29 08:09:59;;;;;;;22.33;4.20;;;14.20;99.90;;;;;;5099427;28;20059;-85
2023/05/29 08:12:25;;;;;;;18.75;3.42;;;14.20;99.90;;;;;;5098983;28;20050;-83
2023/05/29 08:14:50;;;;;;;17.75;3.95;;;14.10;99.90;;;;;;5117237;28;20040;-88
2023/05/29 08:17:16;;;;;;;17.13;4.60;;;14.10;99.90;;;;;;5098939;28;20138;-86
2023/05/29 08:19:42;;;;;;;16.10;3.13;;;14.10;99.90;;;;;;5098841;28;20145;-86
2023/05/29 08:22:07;;;;;;;18.77;3.42;;;14.10;99.90;;;;;;5116987;28;20136;-87
2023/05/29 08:24:33;;;;;;;17.77;3.70;;;14.20;99.90;;;;;;5117181;28;20127;-86
2023/05/29 08:26:59;;;;;;;14.30;3.30;;;14.00;99.90;;;;;;5099190;28;20075;-85
2023/05/29 08:29:25;;;;;;;15.23;3.50;;;14.00;99.90;;;;;;5098721;28;20130;-86
2023/05/29 08:31:52;;;;;;;17.88;3.78;;;13.70;99.90;;;;;;5098650;28;20122;-84
2023/05/29 08:34:17;;;;;;;21.15;3.78;;;13.80;99.90;;;;;;5098467;28;20044;-85
2023/05/29 08:36:45;;;;;;;13.02;3.67;;;14.00;99.90;;;;;;5098651;28;20053;-83
2023/05/29 08:39:10;;;;;;;20.70;4.03;;;14.10;99.90;;;;;;5098807;28;20042;-84
2023/05/29 08:41:45;;;;;;;15.98;3.38;;;14.20;99.90;;;;;;5098377;28;20051;-83
2023/05/29 08:44:14;;;;;;;17.65;3.88;;;14.20;99.90;;;;;;5098887;28;20482;-89
2023/05/29 08:46:40;;;;;;;16.77;3.47;;;14.30;99.90;;;;;;5098600;28;20055;-88
2023/05/29 08:49:08;;;;;;;13.25;2.97;;;14.30;99.90;;;;;;5098577;28;20051;-85
2023/05/29 08:51:38;;;;;;;19.02;3.30;;;14.30;99.90;;;;;;5098554;28;20498;-85
2023/05/29 08:54:04;;;;;;;19.77;3.92;;;14.30;99.90;;;;;;5117381;28;20048;-87
2023/05/29 08:56:30;;;;;;;20.23;3.53;;;14.10;99.90;;;;;;5098399;28;20486;-88
2023/05/29 08:58:57;;;;;;;15.85;3.13;;;14.30;99.90;;;;;;5098299;28;20048;-83
2023/05/29 09:01:26;;;;;;;15.18;3.55;;;14.30;99.90;;;;;;5116556;28;20051;-83
2023/05/29 09:03:52;;;;;;;18.85;3.03;;;14.30;99.90;;;;;;5098294;28;20035;-85
2023/05/29 09:06:18;;;;;;;13.80;3.22;;;14.40;99.90;;;;;;5098298;28;20398;-84
2023/05/29 09:08:44;;;;;;;15.75;3.05;;;14.60;99.90;;;;;;5104568;28;20055;-91
2023/05/29 09:11:10;;;;;;;24.00;4.00;;;14.60;99.90;;;;;;5101142;27;20048;-87
2023/05/29 09:13:35;;;;;;;13.70;3.75;;;14.70;99.90;;;;;;5103991;27;20376;-86
2023/05/29 09:16:04;;;;;;;22.02;3.30;;;14.70;99.90;;;;;;5097710;28;20055;-87
2023/05/29 09:18:31;;;;;;;13.95;3.30;;;14.90;99.90;;;;;;5107897;27;20534;-82
2023/05/29 09:20:57;;;;;;;15.48;3.78;;;14.90;99.90;;;;;;5118051;27;20093;-85
2023/05/29 09:23:25;;;;;;;14.95;3.08;;;14.80;99.90;;;;;;5136484;27;20486;-84
2023/05/29 09:25:54;;;;;;;16.88;3.20;;;14.70;99.90;;;;;;5117316;27;20078;-86
2023/05/29 09:28:23;;;;;;;15.38;2.92;;;14.80;99.90;;;;;;5118686;27;20050;-87
2023/05/29 09:30:49;;;;;;;20.77;4.22;;;14.90;99.90;;;;;;5136487;27;20520;-88
2023/05/29 09:33:18;;;;;;;14.57;3.17;;;14.90;99.90;;;;;;5136326;27;20145;-92
2023/05/29 09:35:48;;;;;;;16.15;3.17;;;15.00;99.90;;;;;;5136798;27;20043;-92
2023/05/29 09:38:19;;;;;;;15.93;3.20;;;15.20;99.90;;;;;;5123111;27;20055;-86
2023/05/29 09:40:46;;;;;;;21.00;3.80;;;15.40;99.90;;;;;;5123126;27;20074;-93
2023/05/29 09:43:19;;;;;;;15.32;3.25;;;15.50;99.90;;;;;;5118184;27;20054;-94
2023/05/29 09:45:49;;;;;;;14.60;3.97;;;15.70;99.90;;;;;;5120748;27;20047;-93
2023/05/29 09:48:18;;;;;;;16.73;3.28;;;15.80;99.90;;;;;;5117792;27;20054;-87
2023/05/29 09:50:47;;;;;;;15.18;3.03;;;16.00;99.90;;;;;;5134069;27;20051;-86
2023/05/29 09:53:27;;;;;;;15.45;3.03;;;16.00;99.90;;;;;;5116404;27;20043;-87
2023/05/29 09:55:54;;;;;;;18.45;3.10;;;16.00;99.90;;;;;;5094479;28;20055;-86
2023/05/29 09:58:24;;;;;;;15.13;3.47;;;15.90;99.90;;;;;;5104665;28;20080;-85
2023/05/29 10:00:53;;;;;;;14.73;2.83;;;16.10;99.90;;;;;;5094865;28;20051;-83
2023/05/29 10:03:21;;;;;;;17.33;3.80;;;16.20;99.90;;;;;;5093505;28;20087;-83
2023/05/29 10:05:52;;;;;;;12.27;3.35;;;16.20;99.90;;;;;;5092979;28;20060;-82
2023/05/29 10:08:19;;;;;;;12.32;2.60;;;16.40;99.90;;;;;;5093198;28;20407;-85
2023/05/29 10:11:04;;;;;;;13.40;3.17;;;16.40;99.90;;;;;;5093508;28;20461;-83
2023/05/29 10:13:41;;;;;;;18.02;2.88;;;16.50;99.90;;;;;;5094505;28;20479;-85
2023/05/29 10:16:12;;;;;;;14.90;3.08;;;16.60;99.90;;;;;;5094509;28;20062;-83
2023/05/29 10:18:49;;;;;;;21.48;3.65;;;16.90;99.90;;;;;;5100464;28;20046;-83
2023/05/29 10:21:16;;;;;;;20.40;3.80;;;16.80;99.90;;;;;;5076202;28;20032;-82
2023/05/29 10:23:46;;;;;;;16.02;2.75;;;16.90;99.90;;;;;;5094567;28;20146;-82
2023/05/29 10:26:25;;;;;;;15.05;3.08;;;17.10;99.90;;;;;;5094254;28;20048;-83
2023/05/29 10:29:08;;;;;;;17.73;3.40;;;16.90;99.90;;;;;;5094506;28;20086;-83
2023/05/29 10:31:54;;;;;;;16.45;3.85;;;17.10;99.90;;;;;;5094677;28;20047;-83
2023/05/29 10:34:33;;;;;;;15.80;3.30;;;17.10;99.90;;;;;;5086548;28;20052;-81
2023/05/29 10:37:08;;;;;;;11.80;2.75;;;17.20;99.90;;;;;;5094294;28;20048;-85
2023/05/29 10:39:34;;;;;;;15.38;3.47;;;17.40;99.90;;;;;;5076352;28;20052;-82
2023/05/29 10:42:00;;;;;;;13.65;2.90;;;17.50;99.90;;;;;;5093933;28;20044;-83
2023/05/29 10:44:32;;;;;;;15.30;2.90;;;17.80;99.90;;;;;;5075880;28;20419;-85
2023/05/29 10:47:05;;;;;;;16.40;2.80;;;17.80;99.90;;;;;;5076215;28;20055;-92
2023/05/29 10:49:31;;;;;;;16.70;2.90;;;17.90;99.90;;;;;;5091299;28;20036;-91
2023/05/29 10:52:04;;;;;;;13.93;2.65;;;18.00;99.90;;;;;;5096387;28;20062;-84
2023/05/29 10:54:40;;;;;;;17.42;3.25;;;18.10;99.90;;;;;;5096274;28;20052;-85
2023/05/29 10:57:09;;;;;;;17.25;3.40;;;18.10;99.90;;;;;;5096025;28;20440;-87
2023/05/29 10:59:38;;;;;;;13.73;2.75;;;18.10;99.90;;;;;;5095915;28;20047;-86
2023/05/29 11:02:07;;;;;;;19.65;3.85;;;18.10;99.90;;;;;;5095847;28;20047;-87
2023/05/29 11:04:33;;;;;;;14.13;3.38;;;18.00;99.90;;;;;;5096125;28;20055;-88
2023/05/29 11:07:06;;;;;;;14.40;2.83;;;18.10;99.90;;;;;;5096781;28;20083;-88
2023/05/29 11:09:37;;;;;;;13.80;2.83;;;18.10;99.90;;;;;;5099830;28;20490;-86
2023/05/29 11:12:13;;;;;;;14.27;2.57;;;18.00;99.90;;;;;;5097854;28;20452;-86
2023/05/29 11:14:54;;;;;;;17.42;2.75;;;18.10;99.90;;;;;;5115981;28;20067;-86
2023/05/29 11:17:38;;;;;;;12.70;3.17;;;17.80;99.90;;;;;;5117282;28;20113;-87
2023/05/29 11:20:08;;;;;;;15.13;3.38;;;17.90;99.90;;;;;;5115505;28;20213;-84
2023/05/29 11:23:00;;;;;;;18.48;3.35;;;18.20;99.90;;;;;;5114708;28;20060;-86
2023/05/29 11:25:26;;;;;;;11.95;3.17;;;18.00;99.90;;;;;;5116583;28;20084;-86
2023/05/29 11:27:52;;;;;;;11.05;2.80;;;17.30;99.90;;;;;;5118318;27;20042;-83
2023/05/29 11:30:24;;;;;;;15.25;3.42;;;17.70;99.90;;;;;;5137510;27;20035;-85
2023/05/29 11:32:53;;;;;;;14.45;3.13;;;17.60;99.90;;;;;;5118865;27;20075;-83
2023/05/29 11:35:24;;;;;;;10.85;2.58;;;17.80;99.90;;;;;;5115920;27;20086;-82
2023/05/29 11:37:50;;;;;;;13.18;3.30;;;18.00;99.90;;;;;;5116117;28;20063;-82
2023/05/29 11:40:16;;;;;;;15.82;2.80;;;18.00;99.90;;;;;;5134289;28;20046;-82
2023/05/29 11:42:48;;;;;;;14.75;2.60;;;18.30;99.90;;;;;;5115794;28;20487;-79
2023/05/29 11:45:23;;;;;;;15.68;3.17;;;18.40;99.90;;;;;;5115905;28;20099;-82
2023/05/29 11:48:00;;;;;;;14.43;2.95;;;18.30;99.90;;;;;;5115725;28;20051;-80
2023/05/29 11:50:27;;;;;;;16.05;3.75;;;18.10;99.90;;;;;;5115985;28;20043;-83
2023/05/29 11:52:53;;;;;;;16.73;2.83;;;18.30;99.90;;;;;;5116239;28;20055;-80
2023/05/29 11:55:20;;;;;;;14.15;2.67;;;18.30;99.90;;;;;;5134505;28;20043;-81
2023/05/29 11:57:59;;;;;;;15.32;2.70;;;18.40;99.90;;;;;;5134038;28;20402;-81
2023/05/29 12:00:32;;;;;;;13.60;2.55;;;18.50;99.90;;;;;;5115832;28;20122;-80
2023/05/29 12:02:58;;;;;;;12.65;2.63;;;18.40;99.90;;;;;;5115996;28;20061;-81
2023/05/29 12:05:24;;;;;;;11.43;3.30;;;18.20;99.90;;;;;;5115641;28;20402;-80
2023/05/29 12:07:52;;;;;;;14.07;2.83;;;18.20;99.90;;;;;;5115723;28;20051;-81
2023/05/29 12:10:20;;;;;;;10.30;3.13;;;18.10;99.90;;;;;;5133998;28;20035;-80
2023/05/29 12:12:52;;;;;;;12.30;3.20;;;18.20;99.90;;;;;;5115854;28;20040;-82
2023/05/29 12:15:18;;;;;;;15.83;2.73;;;18.10;99.90;;;;;;5134295;28;20047;-84
2023/05/29 12:17:45;;;;;;;15.00;3.15;;;18.30;99.90;;;;;;5116199;28;20345;-78
2023/05/29 12:20:12;;;;;;;17.67;2.50;;;18.40;99.90;;;;;;5115373;28;20048;-79
2023/05/29 12:22:40;;;;;;;13.27;3.22;;;18.60;99.90;;;;;;5115712;28;20047;-84
2023/05/29 12:25:21;;;;;;;15.90;3.45;;;18.60;99.90;;;;;;5136639;28;20078;-86
2023/05/29 12:27:48;;;;;;;14.48;3.03;;;18.60;99.90;;;;;;5118226;27;20126;-82
2023/05/29 12:30:20;;;;;;;19.42;2.92;;;18.60;99.90;;;;;;5120636;27;20047;-78
2023/05/29 12:32:55;;;;;;;14.70;2.35;;;18.70;99.90;;;;;;5137936;27;20039;-79
2023/05/29 12:35:25;;;;;;;13.68;2.63;;;18.60;99.90;;;;;;5139445;27;20047;-87
2023/05/29 12:37:59;;;;;;;15.23;3.30;;;18.80;99.90;;;;;;5122946;27;20055;-90
2023/05/29 12:40:27;;;;;;;14.55;2.67;;;19.00;99.90;;;;;;5120521;27;20406;-84
2023/05/29 12:43:01;;;;;;;12.38;2.60;;;19.00;99.90;;;;;;5139536;27;20041;-85